Time;durP1;ratioP1;P1;durP2;ratioP2;P2;SDS_P1;SDS_P2;PMS_P1;PMS_P2;Temp;Humidity;BMP_temperature;BMP_pressure;BME280_temperature;BME280_humidity;BME280_pressure;Samples;Min_cycle;Max_cycle;Signal;HPM_P1;HPM_P2
2021/06/02 00:01:11;;;;;;;4.32;3.47;;;16.20;52.20;;;;;;4998659;28;20031;-81
2021/06/02 00:03:37;;;;;;;8.02;3.50;;;16.10;52.20;;;;;;4980067;28;20508;-80
2021/06/02 00:06:02;;;;;;;5.38;2.83;;;16.00;52.30;;;;;;4972298;28;20038;-82
2021/06/02 00:08:28;;;;;;;5.88;3.47;;;15.90;52.40;;;;;;4973049;28;20042;-81
2021/06/02 00:10:54;;;;;;;6.22;3.40;;;16.00;52.80;;;;;;4988173;28;20034;-81
2021/06/02 00:13:19;;;;;;;6.80;3.50;;;15.90;52.50;;;;;;4974564;28;20039;-82
2021/06/02 00:15:48;;;;;;;3.85;2.97;;;15.70;52.40;;;;;;4983873;28;20041;-81
2021/06/02 00:18:13;;;;;;;4.93;3.35;;;15.60;52.90;;;;;;4992732;28;20085;-81
2021/06/02 00:20:39;;;;;;;5.18;3.60;;;15.50;53.50;;;;;;4983262;28;20394;-81
2021/06/02 00:23:04;;;;;;;7.55;4.35;;;15.40;53.20;;;;;;4997495;28;20041;-80
2021/06/02 00:25:30;;;;;;;6.00;4.30;;;15.30;53.60;;;;;;4973091;28;20076;-81
2021/06/02 00:27:55;;;;;;;5.47;4.00;;;15.20;53.90;;;;;;4994869;28;20038;-81
2021/06/02 00:30:21;;;;;;;8.27;4.03;;;15.10;54.10;;;;;;4965704;28;20030;-81
2021/06/02 00:32:47;;;;;;;6.50;3.60;;;15.10;53.90;;;;;;4981083;28;20049;-81
2021/06/02 00:35:14;;;;;;;4.65;3.47;;;14.90;54.80;;;;;;4995832;28;20061;-81
2021/06/02 00:37:39;;;;;;;5.90;4.18;;;14.70;55.40;;;;;;4965160;28;20529;-81
2021/06/02 00:40:06;;;;;;;5.85;3.83;;;14.60;55.50;;;;;;4978362;28;20121;-80
2021/06/02 00:42:32;;;;;;;3.03;2.80;;;14.60;55.20;;;;;;4975836;28;20050;-82
2021/06/02 00:44:57;;;;;;;5.15;3.65;;;14.80;54.70;;;;;;4963171;28;20624;-81
2021/06/02 00:47:23;;;;;;;7.22;3.50;;;14.80;54.20;;;;;;4969362;28;20042;-82
2021/06/02 00:49:49;;;;;;;5.72;4.13;;;14.80;53.90;;;;;;4992622;28;20030;-81
2021/06/02 00:52:15;;;;;;;8.30;4.70;;;14.70;54.20;;;;;;4990855;28;20497;-81
2021/06/02 00:54:40;;;;;;;6.47;4.32;;;14.50;54.80;;;;;;4997703;28;20318;-82
2021/06/02 00:57:14;;;;;;;6.88;4.63;;;14.30;56.10;;;;;;4977774;28;20057;-81
2021/06/02 00:59:51;;;;;;;5.93;4.05;;;14.10;57.20;;;;;;4997422;28;20105;-81
2021/06/02 01:02:19;;;;;;;10.07;4.50;;;14.20;56.90;;;;;;4981918;28;20030;-81
2021/06/02 01:04:45;;;;;;;5.40;4.60;;;14.30;56.10;;;;;;4977645;28;20497;-81
2021/06/02 01:07:11;;;;;;;7.35;4.55;;;14.10;58.10;;;;;;4992022;28;20042;-81
2021/06/02 01:09:40;;;;;;;5.57;4.38;;;13.90;59.10;;;;;;4990499;28;20034;-79
2021/06/02 01:12:05;;;;;;;6.35;4.68;;;13.90;59.70;;;;;;4994526;28;20033;-81
2021/06/02 01:14:31;;;;;;;7.40;4.45;;;13.80;60.10;;;;;;4994243;28;20022;-80
2021/06/02 01:16:57;;;;;;;8.50;4.57;;;13.70;60.60;;;;;;4994600;28;20048;-80
2021/06/02 01:19:23;;;;;;;8.68;5.10;;;13.70;60.30;;;;;;4975062;28;20039;-81
2021/06/02 01:21:55;;;;;;;6.70;4.78;;;13.80;60.90;;;;;;4979344;28;20329;-81
2021/06/02 01:24:20;;;;;;;7.05;4.82;;;13.70;60.70;;;;;;4991855;28;20501;-81
2021/06/02 01:26:46;;;;;;;8.73;4.82;;;13.70;61.10;;;;;;4994045;28;20054;-81
2021/06/02 01:29:12;;;;;;;7.18;4.85;;;13.60;61.40;;;;;;4993222;28;20037;-81
2021/06/02 01:31:48;;;;;;;8.65;4.75;;;13.60;62.20;;;;;;4992226;28;20034;-82
2021/06/02 01:34:20;;;;;;;7.07;5.10;;;13.70;61.50;;;;;;4984605;28;20041;-80
2021/06/02 01:37:12;;;;;;;6.88;4.65;;;13.70;60.40;;;;;;4987088;28;20493;-80
2021/06/02 01:40:00;;;;;;;5.72;3.95;;;13.80;59.10;;;;;;4993362;28;20030;-81
2021/06/02 01:42:45;;;;;;;9.32;4.93;;;13.70;59.40;;;;;;4985106;28;20034;-81
2021/06/02 01:45:39;;;;;;;7.93;5.05;;;13.70;60.70;;;;;;5000858;28;21333;-80
2021/06/02 01:48:28;;;;;;;7.30;4.53;;;13.50;61.10;;;;;;4981243;28;20049;-81
2021/06/02 01:51:22;;;;;;;5.70;4.00;;;13.50;62.60;;;;;;5001327;28;20045;-80
2021/06/02 01:53:53;;;;;;;8.13;4.43;;;13.50;62.90;;;;;;4993926;28;20037;-82
2021/06/02 01:56:37;;;;;;;9.55;4.60;;;13.40;63.20;;;;;;4995641;28;20130;-82
2021/06/02 01:59:09;;;;;;;10.35;5.00;;;13.50;61.80;;;;;;4995695;28;20480;-80
2021/06/02 02:02:05;;;;;;;8.02;4.82;;;13.50;61.20;;;;;;4992248;28;20058;-81
2021/06/02 02:04:54;;;;;;;6.13;4.38;;;13.60;60.70;;;;;;4981144;28;20031;-81
2021/06/02 02:07:46;;;;;;;5.90;4.30;;;13.50;62.30;;;;;;4992268;28;20034;-81
2021/06/02 02:10:30;;;;;;;8.18;4.85;;;13.50;61.60;;;;;;4975774;28;20113;-80
2021/06/02 02:13:24;;;;;;;8.65;4.63;;;13.50;63.30;;;;;;4996281;28;20037;-81
2021/06/02 02:16:18;;;;;;;6.63;4.60;;;13.40;63.00;;;;;;4975751;28;20101;-81
2021/06/02 02:19:07;;;;;;;7.03;4.53;;;13.40;63.60;;;;;;4983878;28;20037;-81
2021/06/02 02:22:27;;;;;;;7.90;5.18;;;13.50;61.50;;;;;;4991757;28;20026;-81
2021/06/02 02:25:07;;;;;;;6.65;4.72;;;13.50;60.40;;;;;;4964328;28;20058;-81
2021/06/02 02:28:09;;;;;;;7.72;4.78;;;13.40;61.80;;;;;;4970320;28;20096;-82
2021/06/02 02:30:51;;;;;;;5.80;4.35;;;13.40;61.40;;;;;;4993561;28;20061;-81
2021/06/02 02:33:34;;;;;;;7.25;5.10;;;13.30;59.90;;;;;;4984316;28;20544;-81
2021/06/02 02:36:06;;;;;;;7.40;4.63;;;13.40;59.30;;;;;;4992558;28;20035;-81
2021/06/02 02:38:31;;;;;;;6.68;4.65;;;13.40;60.70;;;;;;4974426;28;20034;-80
2021/06/02 02:41:09;;;;;;;7.88;4.57;;;13.30;61.40;;;;;;4995846;28;20030;-81
2021/06/02 02:43:44;;;;;;;6.25;4.88;;;13.30;60.90;;;;;;4992151;28;20594;-81
2021/06/02 02:46:24;;;;;;;7.10;4.30;;;13.10;62.50;;;;;;5001484;28;20062;-81
2021/06/02 02:49:11;;;;;;;7.85;4.38;;;13.10;62.60;;;;;;4981368;28;20117;-81
2021/06/02 02:51:43;;;;;;;9.40;4.65;;;13.00;62.70;;;;;;4995009;28;20089;-82
2021/06/02 02:54:16;;;;;;;5.75;3.35;;;12.90;64.40;;;;;;4963039;28;20045;-81
2021/06/02 02:57:04;;;;;;;9.63;4.80;;;13.20;60.70;;;;;;4962499;28;20437;-81
2021/06/02 02:59:47;;;;;;;4.55;4.05;;;13.40;61.60;;;;;;4983344;28;20069;-81
2021/06/02 03:02:17;;;;;;;6.88;4.70;;;13.40;59.60;;;;;;5001285;28;20029;-81
2021/06/02 03:04:46;;;;;;;7.70;4.70;;;13.30;59.10;;;;;;4982153;28;20056;-82
2021/06/02 03:07:11;;;;;;;7.95;5.45;;;13.00;60.60;;;;;;4995019;28;20379;-80
2021/06/02 03:09:45;;;;;;;4.35;3.85;;;12.90;60.40;;;;;;4981922;28;20034;-81
2021/06/02 03:12:35;;;;;;;9.35;4.75;;;13.10;60.50;;;;;;4983678;28;20034;-81
2021/06/02 03:15:04;;;;;;;4.38;3.85;;;13.20;59.60;;;;;;4994215;28;20035;-81
2021/06/02 03:17:40;;;;;;;5.45;3.78;;;13.20;59.40;;;;;;4978154;28;20042;-81
2021/06/02 03:20:25;;;;;;;7.18;4.28;;;13.20;59.10;;;;;;4988555;28;20042;-81
2021/06/02 03:23:27;;;;;;;4.60;3.90;;;13.20;60.00;;;;;;5005417;28;20537;-80
2021/06/02 03:26:12;;;;;;;7.68;5.13;;;13.30;61.40;;;;;;4996665;28;20034;-81
2021/06/02 03:28:44;;;;;;;9.85;5.70;;;13.10;60.30;;;;;;4997823;28;20037;-82
2021/06/02 03:31:46;;;;;;;6.50;5.32;;;12.70;61.50;;;;;;5001499;28;20041;-81
2021/06/02 03:34:19;;;;;;;5.03;4.43;;;12.50;66.00;;;;;;4988001;28;20072;-82
2021/06/02 03:37:05;;;;;;;5.88;4.38;;;12.70;62.40;;;;;;4978679;28;20375;-81
2021/06/02 03:39:55;;;;;;;9.88;6.20;;;12.90;61.10;;;;;;5002307;28;20088;-80
2021/06/02 03:42:37;;;;;;;4.90;4.40;;;12.80;61.70;;;;;;4980557;28;20093;-81
2021/06/02 03:45:24;;;;;;;8.25;4.28;;;12.80;62.00;;;;;;4996046;28;20382;-81
2021/06/02 03:47:53;;;;;;;8.20;3.80;;;12.90;62.50;;;;;;4981647;28;20026;-80
2021/06/02 03:50:25;;;;;;;7.53;4.63;;;13.00;62.40;;;;;;4977426;28;20150;-80
2021/06/02 03:52:59;;;;;;;9.18;7.45;;;12.90;61.40;;;;;;4983533;28;20512;-79
2021/06/02 03:55:49;;;;;;;9.68;5.65;;;12.90;61.90;;;;;;5005191;28;20359;-81
2021/06/02 03:58:50;;;;;;;8.73;5.07;;;12.70;63.20;;;;;;4987283;28;20044;-81
2021/06/02 04:01:20;;;;;;;7.93;5.30;;;12.70;61.30;;;;;;4969064;28;20180;-81
2021/06/02 04:04:05;;;;;;;7.88;5.50;;;12.60;61.10;;;;;;4995494;28;20397;-81
2021/06/02 04:07:06;;;;;;;7.88;5.60;;;12.50;61.90;;;;;;4980146;28;20030;-80
2021/06/02 04:09:42;;;;;;;5.38;4.38;;;12.50;61.20;;;;;;4980505;28;20402;-79
2021/06/02 04:12:34;;;;;;;10.02;5.50;;;12.60;60.60;;;;;;4992793;28;20046;-81
2021/06/02 04:15:02;;;;;;;8.43;5.43;;;12.50;62.80;;;;;;4965072;28;20038;-79
2021/06/02 04:17:28;;;;;;;8.25;4.60;;;12.30;64.10;;;;;;4961381;28;20035;-81
2021/06/02 04:19:54;;;;;;;10.55;5.43;;;12.60;61.90;;;;;;4975894;28;20065;-81
2021/06/02 04:22:20;;;;;;;10.68;6.57;;;12.90;61.80;;;;;;4995475;28;20486;-81
2021/06/02 04:24:46;;;;;;;7.55;6.55;;;12.90;62.00;;;;;;4979075;28;20045;-81
2021/06/02 04:27:13;;;;;;;7.05;5.70;;;12.90;63.70;;;;;;4994421;28;20404;-81
2021/06/02 04:29:39;;;;;;;8.43;5.38;;;13.00;65.00;;;;;;4302868;28;10001383;-81
2021/06/02 04:32:06;;;;;;;6.57;5.28;;;13.20;65.70;;;;;;4966733;28;20092;-80
2021/06/02 04:34:32;;;;;;;6.38;4.40;;;13.40;65.90;;;;;;4629126;28;9999700;-80
2021/06/02 04:37:00;;;;;;;7.75;5.53;;;13.60;65.50;;;;;;4975821;28;20065;-82
2021/06/02 04:39:26;;;;;;;7.15;4.97;;;13.80;65.60;;;;;;4991044;28;20064;-81
2021/06/02 04:41:55;;;;;;;6.22;4.93;;;14.10;66.00;;;;;;4978504;28;20034;-81
2021/06/02 04:44:22;;;;;;;5.63;4.78;;;14.30;66.60;;;;;;4964478;28;20057;-81
2021/06/02 04:46:48;;;;;;;8.95;4.57;;;14.50;65.50;;;;;;4983979;28;20026;-82
2021/06/02 04:49:14;;;;;;;5.45;4.80;;;14.80;65.60;;;;;;4993921;28;20037;-81
2021/06/02 04:51:58;;;;;;;5.30;4.30;;;15.10;64.90;;;;;;4975900;28;20034;-81
2021/06/02 04:54:35;;;;;;;5.40;4.03;;;15.30;64.10;;;;;;4989861;28;20042;-82
2021/06/02 04:57:28;;;;;;;8.40;4.60;;;15.70;63.80;;;;;;4999937;28;20160;-82
2021/06/02 05:00:17;;;;;;;7.03;4.15;;;15.90;63.60;;;;;;4994394;28;20184;-82
2021/06/02 05:03:00;;;;;;;6.00;4.35;;;16.30;63.70;;;;;;4985012;28;20041;-81
2021/06/02 05:05:38;;;;;;;6.53;4.90;;;16.60;65.30;;;;;;4997207;28;20305;-81
2021/06/02 05:08:26;;;;;;;5.03;4.05;;;16.90;65.50;;;;;;4997371;28;20144;-81
2021/06/02 05:11:19;;;;;;;6.55;4.30;;;17.20;65.30;;;;;;4994125;28;20366;-82
2021/06/02 05:13:44;;;;;;;4.63;3.97;;;17.60;65.70;;;;;;4996624;28;20055;-82
2021/06/02 05:16:34;;;;;;;4.95;4.20;;;17.80;64.90;;;;;;4990445;28;20034;-83
2021/06/02 05:19:24;;;;;;;5.72;3.88;;;18.10;64.90;;;;;;5003002;28;20034;-83
2021/06/02 05:22:12;;;;;;;6.38;3.67;;;18.50;63.70;;;;;;4996788;28;20038;-82
2021/06/02 05:24:57;;;;;;;5.93;4.40;;;18.80;62.80;;;;;;4970798;28;20526;-82
2021/06/02 05:27:43;;;;;;;8.85;4.32;;;19.10;62.80;;;;;;4995484;28;20388;-81
2021/06/02 05:30:40;;;;;;;5.63;4.07;;;19.30;61.90;;;;;;4995715;28;20117;-84
2021/06/02 05:33:19;;;;;;;10.48;4.20;;;19.60;61.90;;;;;;4997923;28;20526;-84
2021/06/02 05:36:05;;;;;;;9.32;4.50;;;19.90;61.50;;;;;;4983888;28;20502;-83
2021/06/02 05:38:34;;;;;;;7.50;3.97;;;20.20;61.30;;;;;;4995129;28;20030;-80
2021/06/02 05:41:07;;;;;;;8.23;4.07;;;20.50;60.60;;;;;;4980447;28;20037;-81
2021/06/02 05:43:51;;;;;;;14.60;4.50;;;20.70;59.70;;;;;;4997186;28;20132;-81
2021/06/02 05:46:39;;;;;;;7.18;4.18;;;20.90;59.30;;;;;;4995098;28;20030;-81
2021/06/02 05:49:19;;;;;;;7.30;3.72;;;21.20;59.00;;;;;;4995432;28;20101;-81
2021/06/02 05:51:59;;;;;;;6.30;3.83;;;21.40;58.30;;;;;;4978909;28;20045;-81
2021/06/02 05:54:43;;;;;;;4.93;3.75;;;21.70;57.80;;;;;;4998379;28;20060;-80
2021/06/02 05:57:37;;;;;;;8.13;4.28;;;21.90;57.10;;;;;;4992922;28;20030;-80
2021/06/02 06:00:27;;;;;;;5.40;4.25;;;22.20;56.90;;;;;;4997196;28;20664;-81
2021/06/02 06:02:58;;;;;;;5.15;3.83;;;22.40;56.50;;;;;;4998056;28;20038;-81
2021/06/02 06:05:25;;;;;;;6.70;3.65;;;22.60;56.40;;;;;;5000231;28;20076;-81
2021/06/02 06:08:18;;;;;;;6.35;3.50;;;22.90;56.00;;;;;;4979791;28;20042;-81
2021/06/02 06:10:43;;;;;;;7.47;3.75;;;23.10;55.60;;;;;;4993945;28;20034;-81
2021/06/02 06:13:34;;;;;;;6.28;3.40;;;23.40;55.70;;;;;;4993662;28;20105;-82
2021/06/02 06:16:44;;;;;;;5.65;3.67;;;23.50;55.20;;;;;;4994565;28;20062;-82
2021/06/02 06:19:17;;;;;;;4.78;3.90;;;23.60;55.60;;;;;;4986046;28;20038;-81
2021/06/02 06:22:02;;;;;;;5.78;4.40;;;24.00;55.50;;;;;;4994455;28;20035;-81
2021/06/02 06:24:48;;;;;;;8.10;3.80;;;24.30;55.20;;;;;;4982975;28;20035;-81
2021/06/02 06:27:29;;;;;;;7.88;4.05;;;24.60;54.70;;;;;;4995502;28;20042;-81
2021/06/02 06:29:57;;;;;;;4.90;3.88;;;24.90;54.10;;;;;;4968607;28;20500;-81
2021/06/02 06:32:24;;;;;;;4.30;3.53;;;25.00;53.60;;;;;;4998035;28;20497;-81
2021/06/02 06:34:49;;;;;;;8.18;3.70;;;25.20;53.40;;;;;;4973074;28;20427;-81
2021/06/02 06:37:17;;;;;;;5.93;3.72;;;25.40;53.00;;;;;;4973624;28;20451;-81
2021/06/02 06:39:52;;;;;;;6.45;3.33;;;25.50;52.30;;;;;;4991607;28;20049;-81
2021/06/02 06:42:26;;;;;;;7.65;3.60;;;25.80;52.40;;;;;;4994024;28;20109;-82
2021/06/02 06:44:56;;;;;;;6.68;3.67;;;25.90;51.80;;;;;;4976489;28;20030;-82
2021/06/02 06:47:22;;;;;;;6.78;3.53;;;26.20;51.50;;;;;;4973050;28;20121;-82
2021/06/02 06:49:52;;;;;;;9.27;3.45;;;26.40;51.20;;;;;;5002863;28;20121;-82
2021/06/02 06:52:22;;;;;;;8.10;3.63;;;26.60;49.70;;;;;;4971664;28;20497;-82
2021/06/02 06:54:47;;;;;;;6.55;3.63;;;26.80;49.60;;;;;;4982190;28;20038;-82
2021/06/02 06:57:14;;;;;;;4.82;2.88;;;27.00;49.20;;;;;;4998843;28;20109;-82
2021/06/02 06:59:39;;;;;;;6.32;3.50;;;27.20;48.20;;;;;;4997285;28;20053;-82
2021/06/02 07:02:05;;;;;;;6.68;3.58;;;27.40;47.50;;;;;;4981303;28;20489;-83
2021/06/02 07:04:31;;;;;;;5.22;3.13;;;27.70;48.00;;;;;;4969155;28;20579;-83
2021/06/02 07:06:57;;;;;;;5.38;2.97;;;27.80;47.10;;;;;;4995434;28;20049;-82
2021/06/02 07:09:23;;;;;;;7.32;3.10;;;27.90;46.50;;;;;;4986973;28;20038;-83
2021/06/02 07:11:49;;;;;;;4.95;2.45;;;28.10;44.80;;;;;;4970238;28;20057;-83
2021/06/02 07:14:26;;;;;;;5.78;2.78;;;28.20;45.70;;;;;;4972209;28;20061;-83
2021/06/02 07:16:53;;;;;;;3.28;2.92;;;28.30;45.80;;;;;;4976763;28;20518;-82
2021/06/02 07:19:19;;;;;;;3.65;2.63;;;28.30;45.90;;;;;;4968786;28;20444;-83
2021/06/02 07:21:45;;;;;;;3.83;3.05;;;28.30;45.00;;;;;;4976505;28;20030;-82
2021/06/02 07:24:11;;;;;;;4.30;2.70;;;28.50;45.60;;;;;;4983545;28;20402;-82
2021/06/02 07:26:38;;;;;;;2.65;2.45;;;29.00;43.50;;;;;;4988323;28;20049;-82
2021/06/02 07:29:03;;;;;;;4.97;2.88;;;29.20;44.10;;;;;;4993947;28;20066;-81
2021/06/02 07:31:33;;;;;;;5.05;2.63;;;29.30;43.50;;;;;;4984802;28;20452;-80
2021/06/02 07:33:59;;;;;;;3.35;2.70;;;29.40;42.60;;;;;;4996603;28;20034;-80
2021/06/02 07:36:24;;;;;;;3.22;2.72;;;29.60;41.90;;;;;;4984651;28;20042;-80
2021/06/02 07:38:50;;;;;;;2.70;2.50;;;29.70;40.60;;;;;;4972622;28;20113;-80
2021/06/02 07:41:16;;;;;;;4.65;2.33;;;29.80;40.30;;;;;;4987333;28;20488;-79
2021/06/02 07:43:42;;;;;;;3.42;2.80;;;29.90;40.70;;;;;;4965327;28;20030;-79
2021/06/02 07:46:07;;;;;;;2.67;2.20;;;30.10;41.00;;;;;;4978273;28;20038;-79
2021/06/02 07:48:33;;;;;;;6.65;3.15;;;30.10;40.60;;;;;;4957566;28;20171;-79
2021/06/02 07:51:00;;;;;;;5.68;3.33;;;30.30;39.90;;;;;;4980477;28;20030;-78
2021/06/02 07:53:26;;;;;;;3.10;2.80;;;30.50;38.90;;;;;;4983397;28;20053;-78
2021/06/02 07:55:52;;;;;;;6.88;3.30;;;30.70;38.80;;;;;;4966490;28;20441;-78
2021/06/02 07:58:18;;;;;;;4.80;2.72;;;30.70;38.70;;;;;;4987584;28;20061;-78
2021/06/02 08:00:43;;;;;;;6.63;2.75;;;30.80;38.90;;;;;;4975502;28;20062;-79
2021/06/02 08:03:09;;;;;;;5.93;3.00;;;31.00;38.50;;;;;;4965508;28;20044;-79
2021/06/02 08:05:34;;;;;;;5.78;2.40;;;31.20;38.00;;;;;;4980341;28;20117;-78
2021/06/02 08:08:00;;;;;;;3.88;2.65;;;31.40;38.30;;;;;;4976680;28;20499;-78
2021/06/02 08:10:26;;;;;;;3.75;2.50;;;31.40;38.50;;;;;;4974376;28;20123;-78
2021/06/02 08:12:51;;;;;;;5.93;2.85;;;31.60;38.10;;;;;;4993691;28;20121;-78
2021/06/02 08:15:23;;;;;;;6.97;2.92;;;31.70;37.90;;;;;;4996012;28;20522;-77
2021/06/02 08:17:48;;;;;;;4.35;2.65;;;31.80;38.20;;;;;;4983853;28;20360;-77
2021/06/02 08:20:14;;;;;;;5.40;2.63;;;32.00;38.10;;;;;;4992284;28;20030;-78
2021/06/02 08:22:40;;;;;;;4.63;2.35;;;32.10;37.80;;;;;;4972028;28;20030;-78
2021/06/02 08:25:10;;;;;;;4.93;2.50;;;32.10;38.00;;;;;;4980800;28;20118;-77
2021/06/02 08:27:36;;;;;;;6.45;3.15;;;32.20;38.30;;;;;;4992843;28;20019;-77
2021/06/02 08:30:03;;;;;;;3.58;2.78;;;32.40;37.20;;;;;;4980069;28;20038;-78
2021/06/02 08:32:29;;;;;;;3.38;2.53;;;32.60;37.10;;;;;;4992870;28;20062;-77
2021/06/02 08:34:54;;;;;;;3.63;3.03;;;32.80;37.70;;;;;;4975990;28;20064;-76
2021/06/02 08:37:20;;;;;;;3.72;2.70;;;32.90;36.50;;;;;;4980376;28;20208;-76
2021/06/02 08:39:46;;;;;;;7.40;3.05;;;32.90;36.70;;;;;;5001979;28;20335;-77
2021/06/02 08:42:12;;;;;;;4.93;2.55;;;33.10;36.40;;;;;;4982600;28;20038;-76
2021/06/02 08:44:38;;;;;;;3.80;2.45;;;33.30;35.60;;;;;;4979000;28;20038;-76
2021/06/02 08:47:04;;;;;;;3.58;2.55;;;33.10;36.20;;;;;;4975687;28;20038;-77
2021/06/02 08:49:29;;;;;;;3.03;2.45;;;33.10;36.90;;;;;;4963775;28;20485;-77
2021/06/02 08:51:55;;;;;;;5.80;2.92;;;33.20;36.70;;;;;;4968344;28;20069;-75
2021/06/02 08:54:23;;;;;;;5.43;2.60;;;33.60;36.30;;;;;;4998503;28;20128;-76
2021/06/02 08:56:49;;;;;;;3.40;3.10;;;34.10;34.00;;;;;;4991002;28;20041;-77
2021/06/02 08:59:16;;;;;;;3.90;2.65;;;34.20;33.50;;;;;;4978619;28;20034;-76
2021/06/02 09:01:41;;;;;;;3.33;2.53;;;34.20;34.10;;;;;;4976434;28;20033;-76
2021/06/02 09:04:08;;;;;;;3.83;2.47;;;34.30;34.60;;;;;;4960957;28;20092;-76
2021/06/02 09:06:36;;;;;;;1.98;1.88;;;34.30;34.40;;;;;;4994148;28;20034;-75
2021/06/02 09:09:02;;;;;;;5.55;2.67;;;34.20;35.80;;;;;;4993837;28;20041;-77
2021/06/02 09:11:28;;;;;;;2.25;2.13;;;34.30;34.20;;;;;;4963961;28;20037;-76
2021/06/02 09:13:54;;;;;;;4.47;2.40;;;34.60;33.60;;;;;;4975734;28;20042;-76
2021/06/02 09:16:23;;;;;;;2.45;2.25;;;34.80;32.80;;;;;;4979526;28;20033;-76
2021/06/02 09:18:59;;;;;;;2.33;2.03;;;35.00;31.60;;;;;;4998054;28;20088;-76
2021/06/02 09:21:28;;;;;;;2.30;2.10;;;34.80;32.50;;;;;;4977537;28;20040;-76
2021/06/02 09:23:54;;;;;;;2.45;2.08;;;34.90;32.00;;;;;;4965980;28;20365;-76
2021/06/02 09:26:26;;;;;;;5.00;2.55;;;34.90;32.50;;;;;;4997975;28;20035;-76
2021/06/02 09:28:59;;;;;;;7.90;2.70;;;35.30;30.70;;;;;;4977552;28;20556;-78
2021/06/02 09:31:32;;;;;;;2.40;1.92;;;35.20;31.60;;;;;;4984320;28;20194;-75
2021/06/02 09:34:19;;;;;;;3.22;2.50;;;35.40;31.10;;;;;;4986173;28;20042;-76
2021/06/02 09:36:46;;;;;;;3.00;2.10;;;35.40;31.30;;;;;;4997369;28;20048;-76
2021/06/02 09:39:14;;;;;;;2.45;2.25;;;35.70;29.90;;;;;;4964961;28;20664;-75
2021/06/02 09:41:49;;;;;;;8.73;2.50;;;35.80;28.90;;;;;;4976868;28;20117;-76
2021/06/02 09:44:22;;;;;;;4.53;2.55;;;35.70;29.10;;;;;;4994068;28;20748;-76
2021/06/02 09:47:01;;;;;;;5.50;2.20;;;35.80;30.10;;;;;;4992448;28;20049;-76
2021/06/02 09:49:27;;;;;;;3.95;2.05;;;35.60;31.00;;;;;;4994290;28;20396;-76
2021/06/02 09:51:53;;;;;;;2.55;2.35;;;35.50;31.30;;;;;;4965216;28;20026;-76
2021/06/02 09:54:23;;;;;;;4.25;2.50;;;35.50;31.30;;;;;;4981011;28;20508;-76
2021/06/02 09:56:48;;;;;;;2.83;2.47;;;35.90;29.90;;;;;;4980608;28;20038;-75
2021/06/02 09:59:15;;;;;;;4.82;2.45;;;36.00;28.90;;;;;;4961184;28;20393;-77
2021/06/02 10:02:00;;;;;;;2.65;2.45;;;36.00;29.60;;;;;;4964778;28;20404;-77
2021/06/02 10:04:33;;;;;;;2.60;2.35;;;36.10;29.40;;;;;;4982987;28;20031;-76
2021/06/02 10:06:59;;;;;;;4.03;2.63;;;36.10;31.10;;;;;;4993025;28;20125;-75
2021/06/02 10:09:34;;;;;;;2.30;2.10;;;36.20;29.80;;;;;;4981577;28;20113;-76
2021/06/02 10:12:05;;;;;;;2.85;2.30;;;36.40;29.90;;;;;;4991384;28;20085;-76
2021/06/02 10:14:31;;;;;;;3.78;2.25;;;36.40;29.40;;;;;;4993775;28;20030;-76
2021/06/02 10:16:56;;;;;;;2.60;1.98;;;36.50;30.00;;;;;;4993482;28;20073;-77
2021/06/02 10:19:41;;;;;;;3.47;2.10;;;36.50;29.90;;;;;;4975853;28;20065;-77
2021/06/02 10:22:24;;;;;;;2.00;1.80;;;37.10;30.00;;;;;;4997732;28;20049;-76
2021/06/02 10:24:51;;;;;;;2.08;1.88;;;37.50;29.90;;;;;;4992778;28;20102;-75
2021/06/02 10:27:18;;;;;;;2.35;1.90;;;37.20;29.30;;;;;;4981240;28;20381;-77
2021/06/02 10:29:44;;;;;;;2.10;1.90;;;37.30;27.70;;;;;;4990728;28;20061;-77
2021/06/02 10:32:09;;;;;;;3.40;1.90;;;37.50;28.40;;;;;;4997396;28;20460;-76
2021/06/02 10:34:35;;;;;;;2.25;2.05;;;37.70;28.90;;;;;;4982237;28;20041;-76
2021/06/02 10:37:00;;;;;;;5.57;2.05;;;38.30;27.30;;;;;;4998524;28;20502;-77
2021/06/02 10:39:27;;;;;;;3.95;1.63;;;37.90;28.50;;;;;;4986766;28;20034;-76
2021/06/02 10:41:57;;;;;;;1.83;1.67;;;38.20;26.40;;;;;;4990142;28;20444;-77
2021/06/02 10:44:26;;;;;;;2.47;1.70;;;38.40;26.70;;;;;;4992104;28;20439;-77
2021/06/02 10:46:52;;;;;;;2.42;1.80;;;38.60;26.60;;;;;;4983870;28;20475;-77
2021/06/02 10:49:26;;;;;;;2.70;2.10;;;38.50;25.80;;;;;;4962691;28;20114;-76
2021/06/02 10:51:52;;;;;;;1.70;1.60;;;38.70;25.20;;;;;;4980435;28;20038;-77
2021/06/02 10:54:20;;;;;;;3.75;2.10;;;38.30;26.60;;;;;;4984431;28;20382;-77
2021/06/02 10:56:58;;;;;;;1.83;1.70;;;38.20;26.40;;;;;;4976242;28;20034;-76
2021/06/02 10:59:29;;;;;;;1.73;1.50;;;38.20;26.90;;;;;;4993453;28;20030;-76
2021/06/02 11:02:03;;;;;;;2.47;1.80;;;38.70;26.70;;;;;;4984541;28;20042;-77
2021/06/02 11:04:29;;;;;;;3.83;2.05;;;38.40;25.20;;;;;;4997028;28;20030;-77
2021/06/02 11:06:54;;;;;;;3.22;1.77;;;38.60;26.60;;;;;;4994106;28;20402;-76
2021/06/02 11:09:21;;;;;;;2.28;1.42;;;38.60;26.60;;;;;;4978318;28;20125;-76
2021/06/02 11:11:47;;;;;;;2.85;1.85;;;38.80;26.20;;;;;;4977051;28;20045;-76
2021/06/02 11:14:16;;;;;;;2.97;2.05;;;38.70;26.20;;;;;;4982679;28;20516;-76
2021/06/02 11:16:48;;;;;;;1.70;1.60;;;39.30;24.80;;;;;;4995737;28;20502;-76
2021/06/02 11:19:18;;;;;;;2.28;1.60;;;39.10;26.40;;;;;;4962598;28;20034;-76
2021/06/02 11:21:57;;;;;;;1.70;1.60;;;39.30;24.70;;;;;;4978817;28;20036;-76
2021/06/02 11:24:32;;;;;;;4.03;2.03;;;39.60;25.00;;;;;;4999741;28;20034;-76
2021/06/02 11:27:13;;;;;;;1.52;1.35;;;39.60;25.80;;;;;;4997179;28;20033;-76
2021/06/02 11:32:29;;;;;;;3.40;1.48;;;39.10;25.70;;;;;;4990786;28;20340;-77
2021/06/02 11:35:05;;;;;;;2.63;1.92;;;39.00;24.00;;;;;;4996925;28;20169;-77
2021/06/02 11:37:34;;;;;;;1.40;1.30;;;38.90;25.40;;;;;;4995232;28;20428;-77
2021/06/02 11:40:01;;;;;;;1.70;1.60;;;40.10;23.90;;;;;;5001663;28;20497;-76
2021/06/02 11:42:35;;;;;;;2.97;1.67;;;40.00;23.60;;;;;;4981711;28;20126;-78
2021/06/02 11:45:26;;;;;;;2.03;1.63;;;39.70;25.40;;;;;;4995262;28;20038;-77
2021/06/02 11:47:55;;;;;;;2.33;1.70;;;40.40;23.70;;;;;;4995101;28;20058;-76
2021/06/02 11:50:22;;;;;;;2.42;1.60;;;40.00;24.60;;;;;;4982727;28;20227;-76
2021/06/02 11:53:01;;;;;;;1.52;1.42;;;39.90;24.00;;;;;;4978872;28;20133;-77
2021/06/02 11:55:27;;;;;;;2.10;1.42;;;39.80;24.40;;;;;;4980943;28;20026;-78
2021/06/02 11:57:53;;;;;;;2.70;1.65;;;40.40;24.30;;;;;;4967726;28;20104;-76
2021/06/02 12:00:23;;;;;;;1.63;1.52;;;40.30;24.10;;;;;;4970591;28;20350;-78
2021/06/02 12:02:53;;;;;;;5.10;1.90;;;40.30;24.40;;;;;;5000924;28;20528;-77
2021/06/02 12:05:26;;;;;;;3.45;2.03;;;40.20;23.80;;;;;;4980682;28;20030;-77
2021/06/02 12:08:00;;;;;;;1.58;1.45;;;40.20;23.50;;;;;;4981942;28;20576;-77
2021/06/02 12:10:30;;;;;;;1.70;1.60;;;40.30;24.20;;;;;;4999269;28;20061;-76
2021/06/02 12:12:55;;;;;;;2.75;1.52;;;41.00;23.30;;;;;;4995846;28;20042;-77
2021/06/02 12:15:22;;;;;;;3.30;1.75;;;40.70;22.60;;;;;;5001656;28;20022;-77
2021/06/02 12:17:52;;;;;;;4.53;2.00;;;41.20;22.60;;;;;;4980643;28;20624;-77
2021/06/02 12:20:22;;;;;;;3.28;1.70;;;41.20;23.30;;;;;;4985849;28;20027;-78
2021/06/02 12:22:48;;;;;;;1.60;1.50;;;41.60;23.50;;;;;;4963006;28;20125;-78
2021/06/02 12:25:19;;;;;;;1.50;1.40;;;41.10;24.60;;;;;;4968368;28;20113;-78
2021/06/02 12:27:47;;;;;;;1.73;1.60;;;41.00;24.80;;;;;;4999383;28;20031;-77
2021/06/02 12:30:17;;;;;;;1.95;1.75;;;40.50;22.70;;;;;;4999375;28;20113;-78
2021/06/02 12:32:59;;;;;;;1.67;1.40;;;40.70;24.30;;;;;;4969218;28;20047;-78
2021/06/02 12:35:25;;;;;;;1.60;1.45;;;40.70;24.50;;;;;;4972886;28;20030;-78
2021/06/02 12:38:17;;;;;;;2.47;1.65;;;40.70;24.10;;;;;;4978872;28;20027;-78
2021/06/02 12:40:52;;;;;;;2.35;1.45;;;41.00;23.30;;;;;;4997004;28;20138;-78
2021/06/02 12:43:17;;;;;;;;;;;41.20;22.70;;;;;;4997991;28;20030;-78
2021/06/02 12:45:44;;;;;;;1.52;1.42;;;41.40;23.50;;;;;;5000246;28;19918;-78
2021/06/02 12:48:09;;;;;;;3.72;1.40;;;41.20;24.30;;;;;;4996796;28;20026;-78
2021/06/02 12:50:43;;;;;;;2.65;2.03;;;41.00;23.80;;;;;;4995032;28;20057;-78
2021/06/02 12:53:09;;;;;;;1.30;1.20;;;41.40;23.30;;;;;;4985717;28;20030;-79
2021/06/02 12:55:45;;;;;;;1.67;1.52;;;41.80;22.50;;;;;;4994351;28;20401;-79
2021/06/02 12:58:12;;;;;;;1.30;1.20;;;41.50;24.10;;;;;;4999024;28;20034;-78
2021/06/02 13:00:41;;;;;;;3.03;1.52;;;41.30;23.80;;;;;;4995469;28;20128;-79
2021/06/02 13:03:08;;;;;;;3.45;1.60;;;41.30;22.80;;;;;;4986637;28;20060;-78
2021/06/02 13:05:34;;;;;;;2.90;1.50;;;41.50;23.70;;;;;;4971193;28;20041;-79
2021/06/02 13:08:04;;;;;;;2.53;1.40;;;41.30;23.60;;;;;;4977614;28;20050;-79
2021/06/02 13:10:31;;;;;;;1.60;1.40;;;41.30;22.80;;;;;;4976149;28;20390;-78
2021/06/02 13:12:58;;;;;;;2.70;1.42;;;41.50;23.00;;;;;;4973572;28;20030;-78
2021/06/02 13:15:26;;;;;;;1.63;1.52;;;41.50;22.50;;;;;;4979417;28;20035;-79
2021/06/02 13:17:52;;;;;;;2.20;1.75;;;41.40;23.70;;;;;;4989960;28;20510;-79